createdAt,value
2022-10-19T00:01:14.730Z,15.76
2022-10-19T00:03:45.635Z,15.76
2022-10-19T00:06:16.591Z,15.77
2022-10-19T00:08:45.015Z,15.76
2022-10-19T00:11:13.813Z,15.71
2022-10-19T00:13:41.858Z,15.70
2022-10-19T00:16:12.081Z,15.69
2022-10-19T00:18:40.472Z,15.71
2022-10-19T00:21:11.214Z,15.71
2022-10-19T00:23:39.403Z,15.73
2022-10-19T00:26:07.870Z,15.73
2022-10-19T00:28:36.283Z,15.77
2022-10-19T00:31:05.802Z,15.76
2022-10-19T00:33:34.020Z,15.80
2022-10-19T00:36:02.466Z,15.84
2022-10-19T00:38:32.205Z,15.80
2022-10-19T00:41:00.086Z,15.76
2022-10-19T00:43:31.698Z,15.78
2022-10-19T00:45:59.634Z,15.81
2022-10-19T00:48:32.033Z,15.85
2022-10-19T00:51:00.902Z,15.78
2022-10-19T00:53:31.773Z,15.80
2022-10-19T00:56:03.826Z,15.85
2022-10-19T00:58:32.168Z,15.88
2022-10-19T01:01:02.411Z,15.93
2022-10-19T01:03:30.655Z,15.91
2022-10-19T01:05:58.769Z,15.93
2022-10-19T01:08:27.065Z,15.97
2022-10-19T01:11:08.549Z,16.04
2022-10-19T01:13:44.991Z,15.99
2022-10-19T01:16:19.174Z,16.04
2022-10-19T01:18:55.398Z,16.04
2022-10-19T01:21:26.134Z,16.02
2022-10-19T01:24:25.494Z,16.01
2022-10-19T01:27:34.161Z,15.97
2022-10-19T01:30:14.646Z,15.98
2022-10-19T01:32:59.374Z,15.98
2022-10-19T01:35:35.557Z,15.95
2022-10-19T01:38:16.020Z,15.97
2022-10-19T01:40:50.230Z,15.94
2022-10-19T01:43:27.074Z,15.93
2022-10-19T01:46:00.984Z,15.89
2022-10-19T01:48:34.646Z,15.93
2022-10-19T01:51:07.128Z,15.91
2022-10-19T01:53:41.435Z,15.92
2022-10-19T01:56:10.456Z,15.92
2022-10-19T01:58:40.584Z,15.96
2022-10-19T02:01:12.278Z,15.97
2022-10-19T02:03:41.379Z,15.99
2022-10-19T02:06:12.000Z,15.96
2022-10-19T02:08:44.391Z,15.95
2022-10-19T02:11:12.362Z,15.96
2022-10-19T02:13:41.738Z,15.89
2022-10-19T02:16:17.504Z,15.95
2022-10-19T02:18:49.375Z,15.88
2022-10-19T02:21:17.612Z,15.89
2022-10-19T02:23:47.538Z,15.88
2022-10-19T02:26:17.352Z,15.87
2022-10-19T02:28:45.650Z,15.84
2022-10-19T02:31:15.229Z,15.84
2022-10-19T02:33:43.290Z,15.83
2022-10-19T02:36:11.126Z,15.83
2022-10-19T02:38:38.983Z,15.84
2022-10-19T02:41:11.903Z,15.85
2022-10-19T02:43:42.683Z,15.84
2022-10-19T02:46:15.970Z,15.81
2022-10-19T02:48:45.684Z,15.80
2022-10-19T02:51:34.350Z,15.84
2022-10-19T02:54:05.104Z,15.76
2022-10-19T02:56:33.657Z,15.73
2022-10-19T02:59:01.745Z,15.72
2022-10-19T03:01:29.685Z,15.71
2022-10-19T03:03:58.930Z,15.67
2022-10-19T03:06:26.772Z,15.60
2022-10-19T03:08:54.652Z,15.62
2022-10-19T03:11:22.590Z,15.57
2022-10-19T03:13:50.389Z,15.55
2022-10-19T03:16:18.254Z,15.57
2022-10-19T03:18:46.144Z,15.59
2022-10-19T03:21:15.653Z,15.54
2022-10-19T03:23:43.573Z,15.49
2022-10-19T03:26:15.111Z,15.46
2022-10-19T03:28:43.056Z,15.47
2022-10-19T03:31:10.984Z,15.44
2022-10-19T03:33:39.627Z,15.41
2022-10-19T03:36:23.833Z,15.44
2022-10-19T03:38:53.602Z,15.41
2022-10-19T03:41:23.434Z,15.37
2022-10-19T03:43:55.569Z,15.35
2022-10-19T03:46:25.549Z,15.35
2022-10-19T03:48:54.940Z,15.39
2022-10-19T03:51:26.177Z,15.42
2022-10-19T03:53:59.967Z,15.37
2022-10-19T03:56:29.679Z,15.38
2022-10-19T03:58:59.178Z,15.37
2022-10-19T04:01:29.444Z,15.37
2022-10-19T04:03:59.044Z,15.41
2022-10-19T04:06:30.386Z,15.42
2022-10-19T04:08:58.468Z,15.42
2022-10-19T04:11:27.932Z,15.39
2022-10-19T04:13:56.938Z,15.36
2022-10-19T04:16:26.479Z,15.43
2022-10-19T04:18:56.766Z,15.40
2022-10-19T04:21:26.814Z,15.39
2022-10-19T04:24:01.053Z,15.40
2022-10-19T04:26:29.263Z,15.34
2022-10-19T04:28:59.011Z,15.41
2022-10-19T04:31:27.887Z,15.41
2022-10-19T04:33:56.380Z,15.38
2022-10-19T04:36:24.711Z,15.40
2022-10-19T04:38:53.041Z,15.35
2022-10-19T04:41:23.850Z,15.36
2022-10-19T04:43:57.726Z,15.37
2022-10-19T04:46:27.117Z,15.33
2022-10-19T04:48:56.355Z,15.31
2022-10-19T04:51:25.485Z,15.31
2022-10-19T04:53:58.611Z,15.32
2022-10-19T04:56:30.777Z,15.30
2022-10-19T04:58:59.513Z,15.28
2022-10-19T05:01:29.185Z,15.30
2022-10-19T05:03:59.881Z,15.29
2022-10-19T05:06:28.256Z,15.28
2022-10-19T05:08:56.089Z,15.29
2022-10-19T05:11:24.217Z,15.31
2022-10-19T05:13:53.767Z,15.32
2022-10-19T05:16:24.272Z,15.36
2022-10-19T05:18:53.481Z,15.33
2022-10-19T05:21:21.941Z,15.35
2022-10-19T05:23:53.458Z,15.39
2022-10-19T05:26:23.128Z,15.38
2022-10-19T05:28:56.154Z,15.37
2022-10-19T05:31:27.601Z,15.37
2022-10-19T05:33:56.216Z,15.36
2022-10-19T05:36:26.386Z,15.33
2022-10-19T05:38:55.915Z,15.35
2022-10-19T05:41:25.256Z,15.37
2022-10-19T05:43:54.701Z,15.38
2022-10-19T05:46:22.777Z,15.39
2022-10-19T05:48:52.132Z,15.37
2022-10-19T05:51:21.751Z,15.37
2022-10-19T05:53:50.284Z,15.32
2022-10-19T05:56:19.747Z,15.34
2022-10-19T05:58:48.128Z,15.35
2022-10-19T06:01:18.940Z,15.33
2022-10-19T06:03:46.961Z,15.33
2022-10-19T06:06:16.236Z,15.32
2022-10-19T06:08:44.203Z,15.36
2022-10-19T06:11:14.221Z,15.39
2022-10-19T06:13:43.847Z,15.36
2022-10-19T06:16:13.313Z,15.38
2022-10-19T06:18:41.709Z,15.38
2022-10-19T06:21:12.459Z,15.36
2022-10-19T06:26:16.133Z,15.36
2022-10-19T06:28:44.813Z,15.36
2022-10-19T06:31:13.514Z,15.34
2022-10-19T06:33:43.165Z,15.35
2022-10-19T06:36:14.062Z,15.38
2022-10-19T06:38:43.948Z,15.39
2022-10-19T06:41:12.754Z,15.42
2022-10-19T06:43:43.173Z,15.41
2022-10-19T06:46:12.514Z,15.44
2022-10-19T06:48:41.390Z,15.41
2022-10-19T06:51:09.369Z,15.41
2022-10-19T06:53:37.446Z,15.40
2022-10-19T06:56:07.925Z,15.43
2022-10-19T06:58:37.265Z,15.43
2022-10-19T07:01:07.617Z,15.44
2022-10-19T07:03:36.790Z,15.46
2022-10-19T07:06:06.670Z,15.45
2022-10-19T07:08:35.981Z,15.51
2022-10-19T07:11:08.613Z,15.52
2022-10-19T07:13:36.816Z,15.53
2022-10-19T07:16:06.969Z,15.46
2022-10-19T07:18:37.028Z,15.41
2022-10-19T07:21:07.952Z,15.42
2022-10-19T07:23:37.369Z,15.41
2022-10-19T07:26:09.665Z,15.45
2022-10-19T07:28:37.598Z,15.47
2022-10-19T07:31:08.029Z,15.51
2022-10-19T07:33:36.200Z,15.55
2022-10-19T07:36:06.094Z,15.56
2022-10-19T07:38:34.759Z,15.57
2022-10-19T07:41:05.670Z,15.58
2022-10-19T07:43:35.634Z,15.59
2022-10-19T07:46:05.743Z,15.61
2022-10-19T07:48:34.574Z,15.62
2022-10-19T07:51:05.380Z,15.63
2022-10-19T07:53:34.109Z,15.64
2022-10-19T07:56:05.068Z,15.67
2022-10-19T07:58:34.384Z,15.68
2022-10-19T08:01:03.108Z,15.69
2022-10-19T08:04:31.356Z,15.71
2022-10-19T08:06:19.995Z,15.72
2022-10-19T08:08:49.129Z,15.72
2022-10-19T08:11:20.645Z,15.73
2022-10-19T08:13:50.274Z,15.74
2022-10-19T08:16:27.203Z,15.74
2022-10-19T08:18:58.471Z,15.70
2022-10-19T08:21:26.744Z,15.71
2022-10-19T08:23:54.698Z,15.76
2022-10-19T08:26:24.260Z,15.72
2022-10-19T08:28:53.483Z,15.71
2022-10-19T08:31:23.303Z,15.75
2022-10-19T08:33:51.577Z,15.77
2022-10-19T08:36:21.271Z,15.83
2022-10-19T08:38:50.702Z,15.84
2022-10-19T08:41:33.550Z,15.89
2022-10-19T08:44:20.309Z,15.91
2022-10-19T08:47:01.436Z,15.92
2022-10-19T08:49:32.750Z,15.88
2022-10-19T08:52:05.307Z,15.86
2022-10-19T08:54:39.990Z,15.94
2022-10-19T08:57:16.664Z,15.92
2022-10-19T08:59:53.256Z,15.91
2022-10-19T09:02:31.619Z,15.90
2022-10-19T09:05:03.700Z,15.89
2022-10-19T09:07:36.970Z,15.91
2022-10-19T09:10:15.720Z,15.98
2022-10-19T09:12:50.618Z,15.89
2022-10-19T09:15:27.605Z,15.89
2022-10-19T09:17:56.073Z,15.91
2022-10-19T09:20:28.491Z,15.89
2022-10-19T09:23:06.696Z,15.89
2022-10-19T09:25:39.352Z,15.90
2022-10-19T09:28:19.451Z,15.93
2022-10-19T09:30:51.442Z,15.93
2022-10-19T09:33:27.927Z,15.95
2022-10-19T09:35:58.564Z,15.99
2022-10-19T09:38:29.466Z,16.00
2022-10-19T09:40:58.216Z,16.02
2022-10-19T09:43:28.201Z,16.04
2022-10-19T09:46:12.720Z,16.03
2022-10-19T09:48:50.357Z,16.07
2022-10-19T09:51:19.332Z,16.04
2022-10-19T09:53:48.726Z,16.04
2022-10-19T09:56:20.616Z,16.01
2022-10-19T09:58:50.034Z,16.03
2022-10-19T10:01:41.744Z,16.07
2022-10-19T10:04:15.146Z,16.03
2022-10-19T10:06:45.198Z,16.04
2022-10-19T10:09:17.140Z,16.11
2022-10-19T10:11:49.072Z,16.10
2022-10-19T10:14:21.428Z,16.16
2022-10-19T10:16:56.423Z,16.20
2022-10-19T10:19:29.335Z,16.24
2022-10-19T10:21:59.696Z,16.19
2022-10-19T10:24:29.417Z,16.16
2022-10-19T10:26:59.766Z,16.17
2022-10-19T10:29:30.451Z,16.20
2022-10-19T10:32:04.246Z,16.20
2022-10-19T10:34:49.828Z,16.22
2022-10-19T10:37:22.829Z,16.25
2022-10-19T10:39:56.665Z,16.24
2022-10-19T10:42:31.688Z,16.23
2022-10-19T10:45:01.044Z,16.21
2022-10-19T10:47:32.154Z,16.24
2022-10-19T10:50:05.782Z,16.28
2022-10-19T10:52:36.368Z,16.35
2022-10-19T10:55:17.970Z,16.39
2022-10-19T10:57:53.720Z,16.39
2022-10-19T11:00:24.098Z,16.36
2022-10-19T11:02:59.782Z,16.39
2022-10-19T11:05:30.634Z,16.40
2022-10-19T11:08:15.578Z,16.43
2022-10-19T11:10:50.981Z,16.49
2022-10-19T11:13:24.569Z,16.51
2022-10-19T11:15:54.734Z,16.58
2022-10-19T11:18:28.514Z,16.47
2022-10-19T11:21:05.976Z,16.47
2022-10-19T11:23:49.215Z,16.38
2022-10-19T11:26:33.505Z,16.38
2022-10-19T11:29:16.894Z,16.43
2022-10-19T11:31:49.206Z,16.49
2022-10-19T11:34:38.535Z,16.53
2022-10-19T11:37:18.187Z,16.56
2022-10-19T11:39:59.001Z,16.58
2022-10-19T11:42:42.767Z,16.54
2022-10-19T11:45:23.316Z,16.54
2022-10-19T11:48:05.874Z,16.53
2022-10-19T11:50:54.149Z,16.47
2022-10-19T11:53:35.766Z,16.40
2022-10-19T11:56:10.644Z,16.44
2022-10-19T11:58:51.823Z,16.51
2022-10-19T12:01:30.512Z,16.44
2022-10-19T12:04:34.254Z,16.34
2022-10-19T12:07:15.688Z,16.30
2022-10-19T12:09:51.279Z,16.25
2022-10-19T12:12:30.681Z,16.27
2022-10-19T12:58:00.503Z,16.68
2022-10-19T13:00:31.828Z,16.80
2022-10-19T13:03:04.766Z,16.79
2022-10-19T13:05:34.555Z,16.91
2022-10-19T13:08:06.089Z,16.94
2022-10-19T13:10:36.147Z,17.14
2022-10-19T13:13:05.617Z,17.01
2022-10-19T13:15:58.157Z,17.03
2022-10-19T13:19:07.035Z,17.17
2022-10-19T13:21:49.435Z,17.21
2022-10-19T13:24:31.896Z,17.21
2022-10-19T13:27:39.480Z,17.30
2022-10-19T13:30:49.517Z,17.29
2022-10-19T13:33:56.016Z,17.25
2022-10-19T13:36:25.664Z,17.17
2022-10-19T13:39:16.401Z,17.22
2022-10-19T13:41:52.952Z,17.32
2022-10-19T13:44:27.844Z,17.36
2022-10-19T13:47:22.704Z,17.46
2022-10-19T13:50:33.497Z,17.55
2022-10-19T13:53:22.650Z,17.54
2022-10-19T13:56:29.081Z,17.53
2022-10-19T13:59:45.913Z,17.61
2022-10-19T14:02:55.601Z,17.75
2022-10-19T14:05:52.848Z,17.85
2022-10-19T14:08:52.189Z,17.85
2022-10-19T14:11:22.930Z,17.88
2022-10-19T14:14:13.664Z,17.93
2022-10-19T14:16:56.029Z,18.01
2022-10-19T14:19:30.242Z,17.98
2022-10-19T14:22:01.748Z,17.94
2022-10-19T14:24:32.727Z,17.92
2022-10-19T14:27:02.656Z,17.96
2022-10-19T14:29:32.230Z,17.94
2022-10-19T14:32:03.544Z,17.99
2022-10-19T14:34:31.564Z,18.05
2022-10-19T14:37:00.916Z,18.01
2022-10-19T14:39:32.493Z,18.03
2022-10-19T14:42:05.618Z,18.03
2022-10-19T14:44:40.105Z,18.13
2022-10-19T14:47:18.756Z,18.11
2022-10-19T14:49:47.109Z,18.05
2022-10-19T14:52:21.313Z,18.06
2022-10-19T14:54:54.036Z,18.01
2022-10-19T14:57:27.775Z,18.00
2022-10-19T14:59:59.201Z,17.93
2022-10-19T15:02:31.326Z,17.93
2022-10-19T15:05:01.613Z,17.87
2022-10-19T15:07:36.871Z,17.90
2022-10-19T15:10:08.744Z,17.86
2022-10-19T15:12:40.824Z,17.87
2022-10-19T15:15:11.117Z,17.83
2022-10-19T15:17:51.235Z,17.77
2022-10-19T15:20:26.932Z,17.74
2022-10-19T15:22:57.083Z,17.69
2022-10-19T15:25:37.084Z,17.68
2022-10-19T15:28:36.019Z,17.60
2022-10-19T15:31:15.115Z,17.53
2022-10-19T15:33:46.786Z,17.42
2022-10-19T15:36:17.351Z,17.37
2022-10-19T15:38:48.685Z,17.36
2022-10-19T15:41:21.324Z,17.33
2022-10-19T15:43:53.984Z,17.27
2022-10-19T15:46:28.339Z,17.19
2022-10-19T15:48:57.573Z,17.13
2022-10-19T15:51:45.999Z,17.12
2022-10-19T15:54:17.315Z,17.04
2022-10-19T15:56:47.071Z,16.92
2022-10-19T15:59:18.108Z,16.87
2022-10-19T16:01:51.114Z,16.87
2022-10-19T16:04:23.092Z,16.86
2022-10-19T16:06:51.071Z,16.82
2022-10-19T16:09:22.478Z,16.83
2022-10-19T16:11:56.445Z,16.82
2022-10-19T16:14:24.338Z,16.83
2022-10-19T16:16:52.220Z,16.89
2022-10-19T16:19:20.045Z,16.80
2022-10-19T16:21:50.279Z,16.76
2022-10-19T16:24:19.975Z,16.75
2022-10-19T16:26:47.967Z,16.72
2022-10-19T16:29:15.956Z,16.66
2022-10-19T16:31:43.787Z,16.66
2022-10-19T16:34:11.636Z,16.63
2022-10-19T16:36:39.559Z,16.62
2022-10-19T16:39:07.418Z,16.59
2022-10-19T16:44:12.491Z,16.49
2022-10-19T16:46:40.649Z,16.47
2022-10-19T16:49:08.709Z,16.41
2022-10-19T16:51:37.714Z,16.39
2022-10-19T16:54:07.525Z,16.38
2022-10-19T16:56:36.878Z,16.38
2022-10-19T16:59:07.310Z,16.36
2022-10-19T17:01:36.104Z,16.34
2022-10-19T17:04:04.048Z,16.33
2022-10-19T17:06:32.045Z,16.31
2022-10-19T17:11:49.681Z,16.22
2022-10-19T17:14:17.790Z,16.23
2022-10-19T17:16:45.894Z,16.24
2022-10-19T17:19:13.958Z,16.18
2022-10-19T17:21:42.490Z,16.16
2022-10-19T17:24:20.149Z,16.15
2022-10-19T17:26:52.136Z,16.12
2022-10-19T17:29:20.636Z,16.11
2022-10-19T17:31:49.812Z,16.11
2022-10-19T17:34:18.712Z,16.12
2022-10-19T17:36:47.946Z,16.02
2022-10-19T17:39:18.579Z,16.01
2022-10-19T17:41:47.468Z,15.98
2022-10-19T17:44:17.458Z,15.98
2022-10-19T17:46:45.970Z,15.98
2022-10-19T17:49:14.343Z,15.86
2022-10-19T17:51:42.454Z,15.86
2022-10-19T17:54:13.623Z,15.86
2022-10-19T17:56:44.937Z,15.85
2022-10-19T17:59:13.641Z,15.85
2022-10-19T18:01:43.977Z,15.85
2022-10-19T18:04:12.036Z,15.82
2022-10-19T18:06:40.138Z,15.85
2022-10-19T18:09:10.255Z,15.87
2022-10-19T18:11:41.518Z,15.88
2022-10-19T18:14:11.307Z,15.86
2022-10-19T18:16:41.397Z,15.86
2022-10-19T18:19:11.885Z,15.89
2022-10-19T18:21:41.957Z,15.88
2022-10-19T18:24:16.520Z,15.90
2022-10-19T18:26:44.789Z,15.82
2022-10-19T18:29:17.283Z,15.84
2022-10-19T18:31:49.072Z,15.85
2022-10-19T18:34:19.607Z,15.76
2022-10-19T18:36:47.984Z,15.77
2022-10-19T18:39:16.309Z,15.75
2022-10-19T18:41:44.231Z,15.75
2022-10-19T18:44:14.444Z,15.76
2022-10-19T18:46:42.390Z,15.73
2022-10-19T18:49:12.512Z,15.74
2022-10-19T18:51:41.879Z,15.73
2022-10-19T18:54:11.680Z,15.72
2022-10-19T18:56:39.489Z,15.74
2022-10-19T18:59:07.459Z,15.74
2022-10-19T19:01:35.391Z,15.74
2022-10-19T19:04:09.063Z,15.76
2022-10-19T19:06:38.416Z,15.68
2022-10-19T19:09:09.676Z,15.56
2022-10-19T19:11:40.804Z,15.55
2022-10-19T19:14:13.396Z,15.60
2022-10-19T19:16:43.736Z,15.55
2022-10-19T19:19:13.728Z,15.55
2022-10-19T19:21:44.164Z,15.57
2022-10-19T19:24:16.259Z,15.57
2022-10-19T19:26:46.722Z,15.58
2022-10-19T19:29:14.899Z,15.58
2022-10-19T19:31:42.831Z,15.56
2022-10-19T19:34:11.138Z,15.56
2022-10-19T19:39:09.366Z,15.47
2022-10-19T19:41:38.737Z,15.45
2022-10-19T19:44:06.739Z,15.45
2022-10-19T19:46:35.003Z,15.43
2022-10-19T19:49:04.783Z,15.39
2022-10-19T19:51:34.143Z,15.38
2022-10-19T19:54:02.217Z,15.33
2022-10-19T19:56:30.306Z,15.33
2022-10-19T19:59:03.356Z,15.33
2022-10-19T20:01:32.209Z,15.33
2022-10-19T20:06:30.693Z,15.27
2022-10-19T20:08:58.729Z,15.19
2022-10-19T20:11:28.601Z,15.24
2022-10-19T20:13:57.325Z,15.25
2022-10-19T20:16:29.768Z,15.20
2022-10-19T20:19:01.840Z,15.17
2022-10-19T20:21:31.665Z,15.15
2022-10-19T20:23:59.594Z,15.13
2022-10-19T20:26:28.283Z,15.05
2022-10-19T20:28:56.964Z,15.04
2022-10-19T20:33:54.741Z,14.99
2022-10-19T20:36:24.453Z,15.00
2022-10-19T20:38:54.114Z,14.97
2022-10-19T20:41:24.240Z,14.93
2022-10-19T20:43:53.653Z,14.92
2022-10-19T20:46:23.841Z,14.86
2022-10-19T20:48:54.676Z,14.84
2022-10-19T20:51:30.641Z,14.83
2022-10-19T20:54:01.742Z,14.87
2022-10-19T20:56:35.812Z,14.81
2022-10-19T20:59:09.163Z,14.75
2022-10-19T21:01:39.264Z,14.69
2022-10-19T21:04:10.789Z,14.61
2022-10-19T21:06:41.082Z,14.62
2022-10-19T21:09:09.935Z,14.61
2022-10-19T21:11:40.615Z,14.53
2022-10-19T21:14:10.047Z,14.49
2022-10-19T21:16:38.606Z,14.44
2022-10-19T21:19:09.752Z,14.42
2022-10-19T21:21:40.196Z,14.45
2022-10-19T21:24:11.401Z,14.39
2022-10-19T21:26:40.261Z,14.35
2022-10-19T21:29:09.724Z,14.37
2022-10-19T21:31:38.735Z,14.37
2022-10-19T21:34:07.243Z,14.42
2022-10-19T21:36:36.641Z,14.42
2022-10-19T21:39:05.341Z,14.43
2022-10-19T21:41:33.398Z,14.40
2022-10-19T21:44:01.631Z,14.42
2022-10-19T21:46:29.849Z,14.39
2022-10-19T21:48:58.098Z,14.45
2022-10-19T21:51:34.430Z,14.38
2022-10-19T21:54:08.140Z,14.35
2022-10-19T21:56:37.429Z,14.34
2022-10-19T21:59:05.544Z,14.34
2022-10-19T22:01:38.604Z,14.35
2022-10-19T22:04:11.785Z,14.37
2022-10-19T22:06:40.124Z,14.36
2022-10-19T22:09:11.212Z,14.33
2022-10-19T22:11:39.417Z,14.31
2022-10-19T22:14:07.555Z,14.30
2022-10-19T22:16:37.025Z,14.29
2022-10-19T22:19:05.942Z,14.32
2022-10-19T22:21:35.381Z,14.29
2022-10-19T22:24:05.796Z,14.31
2022-10-19T22:26:37.263Z,14.27
2022-10-19T22:29:07.059Z,14.34
2022-10-19T22:31:35.856Z,14.35
2022-10-19T22:34:05.912Z,14.29
2022-10-19T22:36:33.782Z,14.29
2022-10-19T22:39:01.708Z,14.27
2022-10-19T22:42:24.906Z,14.29
2022-10-19T22:44:55.117Z,14.18
2022-10-19T22:47:23.073Z,14.16
2022-10-19T22:49:51.001Z,14.10
2022-10-19T22:52:18.870Z,14.09
2022-10-19T22:54:46.763Z,14.09
2022-10-19T22:57:14.735Z,14.09
2022-10-19T22:59:43.323Z,14.12
2022-10-19T23:02:12.801Z,14.06
2022-10-19T23:04:40.772Z,14.07
2022-10-19T23:07:08.706Z,14.05
2022-10-19T23:09:36.648Z,14.01
2022-10-19T23:12:04.848Z,14.02
2022-10-19T23:14:32.680Z,14.01
2022-10-19T23:17:00.536Z,14.02
2022-10-19T23:19:29.796Z,13.97
2022-10-19T23:21:57.678Z,13.98
2022-10-19T23:24:25.719Z,13.99
2022-10-19T23:26:54.253Z,14.00
2022-10-19T23:29:22.338Z,14.02
2022-10-19T23:31:50.586Z,14.02
2022-10-19T23:34:18.784Z,14.00
2022-10-19T23:36:48.022Z,13.98
2022-10-19T23:39:15.935Z,13.93
2022-10-19T23:41:43.739Z,13.97
2022-10-19T23:44:11.804Z,13.96
2022-10-19T23:46:39.629Z,13.95
2022-10-19T23:49:07.522Z,13.94
2022-10-19T23:51:35.462Z,13.91
2022-10-19T23:54:05.015Z,13.86
2022-10-19T23:56:32.871Z,13.91
2022-10-19T23:59:00.722Z,13.88
